AAL2031 KRDU-KLIT
Flight info
| Callsign | AAL2031 |
|---|---|
| Flight time | 1h 58m |
| Altitude | 32000 |
| Route | SHPRD4 SHPRD PITTY JAGIR CHOOK XESSS |
| Aircraft | B738/M-SDE2E3FGHIRWXY/LB1 |
Departure
| Time | 2026-05-08 07:10 |
|---|---|
| Airport | Raleigh-Durham International Airport (KRDU) |
Arrival
| Time | 2026-05-08 09:09 |
|---|---|
| Airport | Bill & Hillary Clinton National Airport/Adams Field (KLIT) |
| Time | Latitude | Longitude | Altitude | Speed | Heading |
|---|---|---|---|---|---|
| 2026-05-08 06:32 | 35.87552 | -78.79662 | 412 ft | 0 kts | 134° |
| 2026-05-08 07:01 | 35.87553 | -78.79663 | 420 ft | 2 kts | 134° |
| 2026-05-08 07:01 | 35.87572 | -78.79685 | 420 ft | 4 kts | 146° |
| 2026-05-08 07:02 | 35.87596 | -78.79698 | 421 ft | 4 kts | 175° |
| 2026-05-08 07:02 | 35.87615 | -78.79694 | 422 ft | 3 kts | 225° |
| 2026-05-08 07:02 | 35.87616 | -78.79693 | 422 ft | 3 kts | 225° |
| 2026-05-08 07:06 | 35.87591 | -78.79724 | 416 ft | 9 kts | 225° |
| 2026-05-08 07:06 | 35.87548 | -78.79793 | 422 ft | 9 kts | 262° |
| 2026-05-08 07:07 | 35.87553 | -78.79868 | 429 ft | 9 kts | 250° |
| 2026-05-08 07:07 | 35.87503 | -78.79936 | 428 ft | 14 kts | 224° |
| 2026-05-08 07:07 | 35.87426 | -78.80031 | 421 ft | 14 kts | 225° |
| 2026-05-08 07:07 | 35.87400 | -78.80104 | 423 ft | 9 kts | 289° |
| 2026-05-08 07:08 | 35.87424 | -78.80143 | 428 ft | 8 kts | 316° |
| 2026-05-08 07:08 | 35.87495 | -78.80131 | 430 ft | 9 kts | 44° |
| 2026-05-08 07:08 | 35.87501 | -78.80123 | 423 ft | 0 kts | 46° |
| 2026-05-08 07:09 | 35.87504 | -78.80119 | 424 ft | 5 kts | 46° |
| 2026-05-08 07:09 | 35.87549 | -78.80063 | 425 ft | 29 kts | 45° |
| 2026-05-08 07:10 | 35.87870 | -78.79670 | 427 ft | 99 kts | 45° |
| 2026-05-08 07:10 | 35.88517 | -78.78875 | 424 ft | 158 kts | 45° |
| 2026-05-08 07:10 | 35.89349 | -78.77856 | 889 ft | 170 kts | 43° |
| 2026-05-08 07:10 | 35.90205 | -78.76904 | 1782 ft | 167 kts | 30° |
| 2026-05-08 07:11 | 35.91383 | -78.76555 | 1978 ft | 193 kts | 346° |
| 2026-05-08 07:11 | 35.92511 | -78.77558 | 2318 ft | 212 kts | 308° |
| 2026-05-08 07:11 | 35.93141 | -78.79312 | 2464 ft | 245 kts | 288° |
| 2026-05-08 07:11 | 35.93146 | -78.81450 | 2558 ft | 254 kts | 265° |
| 2026-05-08 07:12 | 35.92745 | -78.83612 | 2468 ft | 264 kts | 261° |
| 2026-05-08 07:12 | 35.92256 | -78.85777 | 2551 ft | 261 kts | 260° |
| 2026-05-08 07:12 | 35.91766 | -78.87945 | 2516 ft | 263 kts | 260° |
| 2026-05-08 07:12 | 35.91304 | -78.90101 | 2444 ft | 262 kts | 261° |
| 2026-05-08 07:13 | 35.90860 | -78.92251 | 2552 ft | 255 kts | 262° |
| 2026-05-08 07:13 | 35.90430 | -78.94385 | 2869 ft | 260 kts | 261° |
| 2026-05-08 07:13 | 35.89997 | -78.96580 | 3686 ft | 264 kts | 261° |
| 2026-05-08 07:13 | 35.89565 | -78.98786 | 4598 ft | 266 kts | 259° |
| 2026-05-08 07:14 | 35.89134 | -79.01001 | 5467 ft | 264 kts | 259° |
| 2026-05-08 07:14 | 35.88707 | -79.03207 | 5874 ft | 263 kts | 259° |
| 2026-05-08 07:14 | 35.88282 | -79.05415 | 6009 ft | 267 kts | 259° |
| 2026-05-08 07:14 | 35.87852 | -79.07649 | 6011 ft | 267 kts | 259° |
| 2026-05-08 07:15 | 35.87425 | -79.09866 | 6017 ft | 265 kts | 259° |
| 2026-05-08 07:15 | 35.87000 | -79.12074 | 6021 ft | 265 kts | 259° |
| 2026-05-08 07:15 | 35.86576 | -79.14281 | 6019 ft | 265 kts | 259° |
| 2026-05-08 07:15 | 35.86151 | -79.16490 | 6020 ft | 265 kts | 259° |
| 2026-05-08 07:16 | 35.85725 | -79.18701 | 6024 ft | 265 kts | 259° |
| 2026-05-08 07:16 | 35.85298 | -79.20923 | 6247 ft | 268 kts | 259° |
| 2026-05-08 07:16 | 35.84868 | -79.23149 | 7165 ft | 263 kts | 259° |
| 2026-05-08 07:16 | 35.84453 | -79.25294 | 8197 ft | 257 kts | 259° |
| 2026-05-08 07:17 | 35.84040 | -79.27428 | 9149 ft | 255 kts | 258° |
| 2026-05-08 07:17 | 35.83628 | -79.29556 | 10061 ft | 254 kts | 259° |
| 2026-05-08 07:17 | 35.83325 | -79.31737 | 10594 ft | 266 kts | 265° |
| 2026-05-08 07:17 | 35.83151 | -79.34117 | 10751 ft | 290 kts | 266° |
| 2026-05-08 07:18 | 35.82989 | -79.36692 | 10940 ft | 313 kts | 266° |
| 2026-05-08 07:18 | 35.82807 | -79.39457 | 11101 ft | 333 kts | 266° |
| 2026-05-08 07:18 | 35.82602 | -79.42385 | 11271 ft | 351 kts | 265° |
| 2026-05-08 07:18 | 35.82382 | -79.45382 | 11711 ft | 359 kts | 265° |
| 2026-05-08 07:19 | 35.82148 | -79.48463 | 12358 ft | 361 kts | 265° |
| 2026-05-08 07:19 | 35.81912 | -79.51540 | 13057 ft | 361 kts | 265° |
| 2026-05-08 07:19 | 35.81629 | -79.54625 | 13695 ft | 363 kts | 262° |
| 2026-05-08 07:19 | 35.81167 | -79.57698 | 14248 ft | 366 kts | 260° |
| 2026-05-08 07:20 | 35.80631 | -79.60768 | 14840 ft | 366 kts | 259° |
| 2026-05-08 07:20 | 35.80077 | -79.63832 | 15447 ft | 366 kts | 259° |
| 2026-05-08 07:20 | 35.79525 | -79.66897 | 15984 ft | 367 kts | 260° |
| 2026-05-08 07:20 | 35.78979 | -79.69976 | 16519 ft | 369 kts | 260° |
| 2026-05-08 07:21 | 35.78437 | -79.73066 | 17045 ft | 370 kts | 260° |
| 2026-05-08 07:21 | 35.77899 | -79.76167 | 17568 ft | 371 kts | 260° |
| 2026-05-08 07:21 | 35.77361 | -79.79281 | 18062 ft | 372 kts | 261° |
| 2026-05-08 07:21 | 35.76823 | -79.82401 | 18500 ft | 374 kts | 260° |
| 2026-05-08 07:22 | 35.76283 | -79.85536 | 18904 ft | 375 kts | 260° |
| 2026-05-08 07:22 | 35.75740 | -79.88680 | 19314 ft | 376 kts | 260° |
| 2026-05-08 07:22 | 35.75196 | -79.91830 | 19713 ft | 377 kts | 260° |
| 2026-05-08 07:22 | 35.74657 | -79.94949 | 20107 ft | 378 kts | 260° |
| 2026-05-08 07:23 | 35.74107 | -79.98121 | 20491 ft | 379 kts | 260° |
| 2026-05-08 07:23 | 35.73555 | -80.01304 | 20866 ft | 380 kts | 260° |
| 2026-05-08 07:23 | 35.73001 | -80.04492 | 21230 ft | 382 kts | 260° |
| 2026-05-08 07:23 | 35.72442 | -80.07700 | 21576 ft | 383 kts | 260° |
| 2026-05-08 07:24 | 35.71883 | -80.10906 | 21920 ft | 384 kts | 260° |
| 2026-05-08 07:24 | 35.71320 | -80.14128 | 22265 ft | 386 kts | 260° |
| 2026-05-08 07:24 | 35.70754 | -80.17358 | 22599 ft | 387 kts | 260° |
| 2026-05-08 07:24 | 35.70183 | -80.20617 | 22840 ft | 391 kts | 260° |
| 2026-05-08 07:25 | 35.69608 | -80.23891 | 23151 ft | 392 kts | 259° |
| 2026-05-08 07:25 | 35.69032 | -80.27170 | 23486 ft | 392 kts | 259° |
| 2026-05-08 07:25 | 35.67872 | -80.33745 | 24049 ft | 394 kts | 260° |
| 2026-05-08 07:26 | 35.67289 | -80.37044 | 24321 ft | 394 kts | 260° |
| 2026-05-08 07:26 | 35.66715 | -80.40293 | 24583 ft | 394 kts | 260° |
| 2026-05-08 07:26 | 35.66130 | -80.43593 | 24835 ft | 394 kts | 260° |
| 2026-05-08 07:26 | 35.65544 | -80.46884 | 25076 ft | 394 kts | 260° |
| 2026-05-08 07:27 | 35.64878 | -80.50164 | 25306 ft | 396 kts | 258° |
| 2026-05-08 07:27 | 35.64139 | -80.53427 | 25538 ft | 396 kts | 257° |
| 2026-05-08 07:27 | 35.63378 | -80.56690 | 25736 ft | 397 kts | 257° |
| 2026-05-08 07:27 | 35.62612 | -80.59956 | 25911 ft | 398 kts | 257° |
| 2026-05-08 07:28 | 35.61848 | -80.63220 | 26079 ft | 398 kts | 257° |
| 2026-05-08 07:28 | 35.61085 | -80.66489 | 26261 ft | 397 kts | 257° |
| 2026-05-08 07:28 | 35.60326 | -80.69750 | 26500 ft | 395 kts | 257° |
| 2026-05-08 07:28 | 35.59572 | -80.72996 | 26787 ft | 393 kts | 258° |
| 2026-05-08 07:29 | 35.58826 | -80.76211 | 27066 ft | 390 kts | 258° |
| 2026-05-08 07:29 | 35.58082 | -80.79414 | 27341 ft | 388 kts | 258° |
| 2026-05-08 07:29 | 35.57352 | -80.82557 | 27609 ft | 386 kts | 258° |
| 2026-05-08 07:29 | 35.56615 | -80.85727 | 27889 ft | 384 kts | 258° |
| 2026-05-08 07:30 | 35.55882 | -80.88877 | 28182 ft | 382 kts | 258° |
| 2026-05-08 07:30 | 35.55152 | -80.92008 | 28483 ft | 380 kts | 258° |
| 2026-05-08 07:30 | 35.54427 | -80.95111 | 28827 ft | 376 kts | 258° |
| 2026-05-08 07:30 | 35.53705 | -80.98199 | 29147 ft | 374 kts | 258° |
| 2026-05-08 07:31 | 35.52988 | -81.01261 | 29428 ft | 372 kts | 258° |
| 2026-05-08 07:31 | 35.52274 | -81.04310 | 29707 ft | 371 kts | 258° |
| 2026-05-08 07:31 | 35.51571 | -81.07309 | 30024 ft | 369 kts | 258° |
| 2026-05-08 07:31 | 35.50863 | -81.10323 | 30323 ft | 366 kts | 258° |
| 2026-05-08 07:32 | 35.50158 | -81.13317 | 30567 ft | 365 kts | 258° |
| 2026-05-08 07:32 | 35.49457 | -81.16297 | 30774 ft | 364 kts | 258° |
| 2026-05-08 07:32 | 35.48756 | -81.19272 | 31014 ft | 363 kts | 258° |
| 2026-05-08 07:32 | 35.48055 | -81.22242 | 31260 ft | 361 kts | 258° |
| 2026-05-08 07:33 | 35.47356 | -81.25199 | 31513 ft | 359 kts | 258° |
| 2026-05-08 07:33 | 35.46661 | -81.28137 | 31778 ft | 358 kts | 258° |
| 2026-05-08 07:33 | 35.45967 | -81.31066 | 32037 ft | 356 kts | 258° |
| 2026-05-08 07:34 | 35.44579 | -81.36922 | 32026 ft | 358 kts | 258° |
| 2026-05-08 07:34 | 35.43191 | -81.42759 | 32025 ft | 360 kts | 258° |
| 2026-05-08 07:35 | 35.41782 | -81.48672 | 32021 ft | 362 kts | 257° |
| 2026-05-08 07:35 | 35.40363 | -81.54608 | 32009 ft | 363 kts | 257° |
| 2026-05-08 07:36 | 35.38936 | -81.60563 | 32038 ft | 363 kts | 257° |
| 2026-05-08 07:36 | 35.37511 | -81.66495 | 32060 ft | 363 kts | 258° |
| 2026-05-08 07:37 | 35.36087 | -81.72411 | 32037 ft | 361 kts | 258° |
| 2026-05-08 07:37 | 35.34666 | -81.78308 | 32053 ft | 360 kts | 258° |
| 2026-05-08 07:38 | 35.33245 | -81.84182 | 32058 ft | 359 kts | 257° |
| 2026-05-08 07:38 | 35.31956 | -81.90023 | 32061 ft | 357 kts | 260° |
| 2026-05-08 07:39 | 35.30794 | -81.95930 | 32060 ft | 357 kts | 260° |
| 2026-05-08 07:39 | 35.29629 | -82.01832 | 32048 ft | 356 kts | 260° |
| 2026-05-08 07:40 | 35.28447 | -82.07735 | 32043 ft | 356 kts | 259° |
| 2026-05-08 07:40 | 35.27257 | -82.13624 | 32041 ft | 356 kts | 259° |
| 2026-05-08 07:41 | 35.26060 | -82.19514 | 32032 ft | 356 kts | 259° |
| 2026-05-08 07:41 | 35.24871 | -82.25361 | 31954 ft | 357 kts | 259° |
| 2026-05-08 07:42 | 35.23657 | -82.31304 | 32013 ft | 362 kts | 259° |
| 2026-05-08 07:42 | 35.22425 | -82.37304 | 32011 ft | 365 kts | 259° |
| 2026-05-08 07:43 | 35.21184 | -82.43336 | 32029 ft | 366 kts | 259° |
| 2026-05-08 07:43 | 35.19942 | -82.49357 | 32018 ft | 365 kts | 259° |
| 2026-05-08 07:44 | 35.18700 | -82.55360 | 32040 ft | 363 kts | 259° |
| 2026-05-08 07:44 | 35.17468 | -82.61303 | 32036 ft | 363 kts | 259° |
| 2026-05-08 07:45 | 35.16228 | -82.67272 | 32038 ft | 362 kts | 259° |
| 2026-05-08 07:45 | 35.14986 | -82.73234 | 32031 ft | 361 kts | 259° |
| 2026-05-08 07:46 | 35.13743 | -82.79183 | 32027 ft | 361 kts | 259° |
| 2026-05-08 07:46 | 35.12495 | -82.85139 | 32020 ft | 361 kts | 259° |
| 2026-05-08 07:47 | 35.11247 | -82.91081 | 32041 ft | 361 kts | 259° |
| 2026-05-08 07:47 | 35.09995 | -82.97029 | 32037 ft | 362 kts | 259° |
| 2026-05-08 07:48 | 35.08745 | -83.02949 | 32047 ft | 361 kts | 259° |
| 2026-05-08 07:48 | 35.07485 | -83.08900 | 32052 ft | 362 kts | 258° |
| 2026-05-08 07:49 | 35.06222 | -83.14850 | 32039 ft | 362 kts | 259° |
| 2026-05-08 07:49 | 35.04957 | -83.20797 | 32038 ft | 362 kts | 258° |
| 2026-05-08 07:50 | 35.03684 | -83.26764 | 32047 ft | 364 kts | 258° |
| 2026-05-08 07:50 | 35.02409 | -83.32727 | 32058 ft | 366 kts | 258° |
| 2026-05-08 07:51 | 35.01115 | -83.38762 | 32058 ft | 368 kts | 258° |
| 2026-05-08 07:51 | 34.99818 | -83.44797 | 32053 ft | 368 kts | 258° |
| 2026-05-08 07:52 | 34.98515 | -83.50828 | 32065 ft | 367 kts | 258° |
| 2026-05-08 07:52 | 34.97214 | -83.56852 | 32046 ft | 368 kts | 258° |
| 2026-05-08 07:53 | 34.95907 | -83.62884 | 32059 ft | 368 kts | 258° |
| 2026-05-08 07:53 | 34.94603 | -83.68884 | 32063 ft | 369 kts | 258° |
| 2026-05-08 07:54 | 34.93287 | -83.74929 | 32071 ft | 369 kts | 258° |
| 2026-05-08 07:54 | 34.91968 | -83.80967 | 32076 ft | 368 kts | 258° |
| 2026-05-08 07:55 | 34.90644 | -83.87010 | 32077 ft | 369 kts | 258° |
| 2026-05-08 07:55 | 34.89318 | -83.93051 | 32079 ft | 369 kts | 257° |
| 2026-05-08 07:56 | 34.87992 | -83.99077 | 32082 ft | 368 kts | 257° |
| 2026-05-08 07:56 | 34.86662 | -84.05101 | 32084 ft | 368 kts | 257° |
| 2026-05-08 07:57 | 34.85341 | -84.11072 | 32083 ft | 367 kts | 257° |
| 2026-05-08 07:57 | 34.84007 | -84.17088 | 32080 ft | 368 kts | 257° |
| 2026-05-08 07:58 | 34.82665 | -84.23127 | 32074 ft | 371 kts | 257° |
| 2026-05-08 07:58 | 34.81532 | -84.28212 | 32068 ft | 372 kts | 257° |
| 2026-05-08 07:59 | 34.80185 | -84.34242 | 32070 ft | 372 kts | 257° |
| 2026-05-08 07:59 | 34.78822 | -84.40328 | 32066 ft | 373 kts | 257° |
| 2026-05-08 08:00 | 34.77455 | -84.46412 | 32060 ft | 373 kts | 257° |
| 2026-05-08 08:00 | 34.76087 | -84.52491 | 32074 ft | 372 kts | 257° |
| 2026-05-08 08:01 | 34.74715 | -84.58570 | 32069 ft | 372 kts | 257° |
| 2026-05-08 08:01 | 34.73341 | -84.64642 | 32074 ft | 372 kts | 257° |
| 2026-05-08 08:02 | 34.71974 | -84.70672 | 32073 ft | 372 kts | 257° |
| 2026-05-08 08:02 | 34.70595 | -84.76735 | 32080 ft | 371 kts | 257° |
| 2026-05-08 08:03 | 34.69216 | -84.82789 | 32072 ft | 371 kts | 257° |
| 2026-05-08 08:03 | 34.67836 | -84.88827 | 32074 ft | 370 kts | 257° |
| 2026-05-08 08:04 | 34.66464 | -84.94821 | 32075 ft | 370 kts | 257° |
| 2026-05-08 08:04 | 34.65078 | -85.00847 | 32070 ft | 370 kts | 256° |
| 2026-05-08 08:05 | 34.63472 | -85.06798 | 32019 ft | 370 kts | 254° |
| 2026-05-08 08:05 | 34.61785 | -85.12726 | 32055 ft | 372 kts | 253° |
| 2026-05-08 08:06 | 34.60098 | -85.18654 | 32068 ft | 374 kts | 254° |
| 2026-05-08 08:06 | 34.58401 | -85.24645 | 32066 ft | 376 kts | 253° |
| 2026-05-08 08:07 | 34.56697 | -85.30660 | 32066 ft | 377 kts | 254° |
| 2026-05-08 08:07 | 34.54991 | -85.36679 | 32064 ft | 377 kts | 254° |
| 2026-05-08 08:08 | 34.53285 | -85.42685 | 32073 ft | 377 kts | 253° |
| 2026-05-08 08:08 | 34.51577 | -85.48682 | 32067 ft | 375 kts | 253° |
| 2026-05-08 08:09 | 34.49873 | -85.54655 | 32071 ft | 374 kts | 253° |
| 2026-05-08 08:09 | 34.48170 | -85.60614 | 32062 ft | 374 kts | 253° |
| 2026-05-08 08:10 | 34.46475 | -85.66529 | 32075 ft | 374 kts | 253° |
| 2026-05-08 08:10 | 34.44768 | -85.72477 | 32059 ft | 374 kts | 253° |
| 2026-05-08 08:11 | 34.43058 | -85.78424 | 32063 ft | 374 kts | 253° |
| 2026-05-08 08:11 | 34.41345 | -85.84366 | 32062 ft | 373 kts | 253° |
| 2026-05-08 08:12 | 34.39628 | -85.90307 | 32054 ft | 374 kts | 253° |
| 2026-05-08 08:12 | 34.37904 | -85.96266 | 32061 ft | 376 kts | 253° |
| 2026-05-08 08:13 | 34.36168 | -86.02251 | 32063 ft | 377 kts | 253° |
| 2026-05-08 08:13 | 34.34437 | -86.08205 | 32064 ft | 378 kts | 253° |
| 2026-05-08 08:14 | 34.32688 | -86.14210 | 32068 ft | 378 kts | 253° |
| 2026-05-08 08:14 | 34.30933 | -86.20221 | 32065 ft | 378 kts | 253° |
| 2026-05-08 08:15 | 34.29179 | -86.26218 | 32071 ft | 378 kts | 253° |
| 2026-05-08 08:15 | 34.27432 | -86.32177 | 32074 ft | 378 kts | 253° |
| 2026-05-08 08:16 | 34.25673 | -86.38167 | 32078 ft | 378 kts | 253° |
| 2026-05-08 08:16 | 34.23910 | -86.44155 | 32066 ft | 378 kts | 253° |
| 2026-05-08 08:17 | 34.22146 | -86.50135 | 32073 ft | 377 kts | 253° |
| 2026-05-08 08:17 | 34.20381 | -86.56109 | 32069 ft | 377 kts | 253° |
| 2026-05-08 08:18 | 34.18612 | -86.62082 | 32069 ft | 377 kts | 253° |
| 2026-05-08 08:18 | 34.16844 | -86.68038 | 32027 ft | 377 kts | 253° |
| 2026-05-08 08:19 | 34.15070 | -86.74006 | 32069 ft | 378 kts | 253° |
| 2026-05-08 08:19 | 34.13301 | -86.79942 | 32074 ft | 379 kts | 253° |
| 2026-05-08 08:20 | 34.11511 | -86.85938 | 32077 ft | 379 kts | 253° |
| 2026-05-08 08:20 | 34.09719 | -86.91928 | 32082 ft | 380 kts | 253° |
| 2026-05-08 08:21 | 34.07918 | -86.97933 | 32079 ft | 381 kts | 252° |
| 2026-05-08 08:21 | 34.06114 | -87.03938 | 32074 ft | 381 kts | 252° |
| 2026-05-08 08:22 | 34.04302 | -87.09959 | 32070 ft | 381 kts | 252° |
| 2026-05-08 08:22 | 34.02490 | -87.15967 | 32066 ft | 381 kts | 252° |
| 2026-05-08 08:23 | 34.00685 | -87.21938 | 32073 ft | 381 kts | 252° |
| 2026-05-08 08:23 | 33.98867 | -87.27943 | 32069 ft | 381 kts | 252° |
| 2026-05-08 08:24 | 33.97046 | -87.33947 | 32079 ft | 381 kts | 252° |
| 2026-05-08 08:24 | 33.95239 | -87.39942 | 32068 ft | 380 kts | 255° |
| 2026-05-08 08:25 | 33.94436 | -87.46190 | 32068 ft | 379 kts | 265° |
| 2026-05-08 08:25 | 33.94601 | -87.52538 | 32056 ft | 382 kts | 276° |
| 2026-05-08 08:26 | 33.95625 | -87.58828 | 32062 ft | 383 kts | 277° |
| 2026-05-08 08:26 | 33.96685 | -87.65115 | 32045 ft | 383 kts | 277° |
| 2026-05-08 08:27 | 33.97723 | -87.71367 | 32027 ft | 383 kts | 277° |
| 2026-05-08 08:27 | 33.98754 | -87.77656 | 32043 ft | 383 kts | 277° |
| 2026-05-08 08:28 | 33.99778 | -87.83948 | 32044 ft | 383 kts | 277° |
| 2026-05-08 08:28 | 34.00798 | -87.90247 | 32048 ft | 383 kts | 277° |
| 2026-05-08 08:29 | 34.01815 | -87.96549 | 32049 ft | 383 kts | 277° |
| 2026-05-08 08:29 | 34.02825 | -88.02830 | 32050 ft | 383 kts | 277° |
| 2026-05-08 08:30 | 34.03836 | -88.09136 | 32054 ft | 383 kts | 277° |
| 2026-05-08 08:30 | 34.05345 | -88.18591 | 32053 ft | 383 kts | 277° |
| 2026-05-08 08:31 | 34.06345 | -88.24883 | 32051 ft | 383 kts | 277° |
| 2026-05-08 08:31 | 34.07345 | -88.31196 | 32057 ft | 383 kts | 276° |
| 2026-05-08 08:32 | 34.08341 | -88.37507 | 32057 ft | 383 kts | 276° |
| 2026-05-08 08:32 | 34.09332 | -88.43810 | 32061 ft | 383 kts | 276° |
| 2026-05-08 08:33 | 34.10321 | -88.50115 | 32051 ft | 382 kts | 276° |
| 2026-05-08 08:33 | 34.11300 | -88.56389 | 32061 ft | 383 kts | 276° |
| 2026-05-08 08:34 | 34.12284 | -88.62712 | 32080 ft | 383 kts | 276° |
| 2026-05-08 08:34 | 34.13264 | -88.69029 | 32078 ft | 383 kts | 276° |
| 2026-05-08 08:35 | 34.14242 | -88.75359 | 32080 ft | 383 kts | 276° |
| 2026-05-08 08:35 | 34.15218 | -88.81696 | 32068 ft | 383 kts | 276° |
| 2026-05-08 08:36 | 34.16189 | -88.88022 | 32077 ft | 383 kts | 276° |
| 2026-05-08 08:36 | 34.17156 | -88.94347 | 32078 ft | 383 kts | 276° |
| 2026-05-08 08:37 | 34.18115 | -89.00642 | 32078 ft | 384 kts | 276° |
| 2026-05-08 08:37 | 34.19077 | -89.06980 | 32071 ft | 384 kts | 276° |
| 2026-05-08 08:38 | 34.20038 | -89.13330 | 32074 ft | 384 kts | 276° |
| 2026-05-08 08:38 | 34.20993 | -89.19669 | 32082 ft | 383 kts | 276° |
| 2026-05-08 08:39 | 34.21945 | -89.26007 | 32081 ft | 382 kts | 276° |
| 2026-05-08 08:39 | 34.22888 | -89.32306 | 32076 ft | 380 kts | 276° |
| 2026-05-08 08:40 | 34.23824 | -89.38579 | 32080 ft | 378 kts | 276° |
| 2026-05-08 08:40 | 34.24752 | -89.44833 | 32080 ft | 377 kts | 276° |
| 2026-05-08 08:41 | 34.25669 | -89.51030 | 32088 ft | 377 kts | 276° |
| 2026-05-08 08:41 | 34.26587 | -89.57259 | 32088 ft | 377 kts | 276° |
| 2026-05-08 08:42 | 34.27502 | -89.63487 | 32090 ft | 377 kts | 276° |
| 2026-05-08 08:42 | 34.28416 | -89.69734 | 32087 ft | 377 kts | 276° |
| 2026-05-08 08:43 | 34.29327 | -89.75983 | 32074 ft | 377 kts | 276° |
| 2026-05-08 08:43 | 34.30236 | -89.82236 | 32074 ft | 378 kts | 276° |
| 2026-05-08 08:44 | 34.31136 | -89.88455 | 32074 ft | 378 kts | 276° |
| 2026-05-08 08:44 | 34.32039 | -89.94714 | 32076 ft | 378 kts | 276° |
| 2026-05-08 08:45 | 34.32938 | -90.00975 | 32068 ft | 378 kts | 276° |
| 2026-05-08 08:45 | 34.33690 | -90.06221 | 32075 ft | 377 kts | 275° |
| 2026-05-08 08:46 | 34.34685 | -90.12431 | 32068 ft | 381 kts | 281° |
| 2026-05-08 08:46 | 34.36262 | -90.18562 | 32072 ft | 382 kts | 282° |
| 2026-05-08 08:47 | 34.37852 | -90.24699 | 32079 ft | 382 kts | 281° |
| 2026-05-08 08:47 | 34.39428 | -90.30836 | 32079 ft | 382 kts | 281° |
| 2026-05-08 08:48 | 34.40999 | -90.36990 | 32081 ft | 382 kts | 281° |
| 2026-05-08 08:48 | 34.42560 | -90.43127 | 32084 ft | 381 kts | 281° |
| 2026-05-08 08:49 | 34.44116 | -90.49256 | 31825 ft | 381 kts | 281° |
| 2026-05-08 08:49 | 34.44885 | -90.52295 | 31182 ft | 377 kts | 281° |
| 2026-05-08 08:49 | 34.45653 | -90.55324 | 30474 ft | 376 kts | 281° |
| 2026-05-08 08:50 | 34.46419 | -90.58360 | 29603 ft | 377 kts | 282° |
| 2026-05-08 08:50 | 34.47185 | -90.61399 | 28683 ft | 378 kts | 282° |
| 2026-05-08 08:50 | 34.47953 | -90.64446 | 27801 ft | 379 kts | 282° |
| 2026-05-08 08:50 | 34.48721 | -90.67499 | 26863 ft | 379 kts | 282° |
| 2026-05-08 08:51 | 34.49494 | -90.70580 | 25995 ft | 386 kts | 282° |
| 2026-05-08 08:51 | 34.50289 | -90.73760 | 25302 ft | 402 kts | 283° |
| 2026-05-08 08:51 | 34.51100 | -90.77001 | 24586 ft | 400 kts | 283° |
| 2026-05-08 08:51 | 34.51901 | -90.80190 | 23746 ft | 400 kts | 283° |
| 2026-05-08 08:52 | 34.52712 | -90.83422 | 22763 ft | 400 kts | 283° |
| 2026-05-08 08:52 | 34.53520 | -90.86650 | 21904 ft | 398 kts | 284° |
| 2026-05-08 08:52 | 34.54320 | -90.89845 | 21140 ft | 394 kts | 284° |
| 2026-05-08 08:52 | 34.55111 | -90.93011 | 20386 ft | 390 kts | 284° |
| 2026-05-08 08:53 | 34.55894 | -90.96152 | 19630 ft | 388 kts | 284° |
| 2026-05-08 08:53 | 34.56671 | -90.99276 | 18877 ft | 386 kts | 284° |
| 2026-05-08 08:53 | 34.57442 | -91.02383 | 18123 ft | 384 kts | 285° |
| 2026-05-08 08:53 | 34.58211 | -91.05480 | 17336 ft | 381 kts | 285° |
| 2026-05-08 08:54 | 34.58972 | -91.08550 | 16599 ft | 378 kts | 285° |
| 2026-05-08 08:54 | 34.59726 | -91.11596 | 15875 ft | 375 kts | 285° |
| 2026-05-08 08:54 | 34.60474 | -91.14622 | 15166 ft | 373 kts | 285° |
| 2026-05-08 08:54 | 34.61217 | -91.17631 | 14456 ft | 371 kts | 285° |
| 2026-05-08 08:55 | 34.61944 | -91.20579 | 13757 ft | 369 kts | 285° |
| 2026-05-08 08:55 | 34.62680 | -91.23569 | 13007 ft | 367 kts | 285° |
| 2026-05-08 08:55 | 34.63411 | -91.26539 | 12302 ft | 365 kts | 285° |
| 2026-05-08 08:55 | 34.64136 | -91.29488 | 11667 ft | 362 kts | 285° |
| 2026-05-08 08:56 | 34.64844 | -91.32373 | 11376 ft | 350 kts | 285° |
| 2026-05-08 08:56 | 34.65525 | -91.35143 | 11261 ft | 334 kts | 285° |
| 2026-05-08 08:56 | 34.66176 | -91.37797 | 11153 ft | 320 kts | 285° |
| 2026-05-08 08:56 | 34.66797 | -91.40335 | 11021 ft | 308 kts | 285° |
| 2026-05-08 08:57 | 34.67392 | -91.42769 | 10823 ft | 300 kts | 285° |
| 2026-05-08 08:57 | 34.67974 | -91.45152 | 10744 ft | 288 kts | 285° |
| 2026-05-08 08:57 | 34.68533 | -91.47440 | 10642 ft | 277 kts | 285° |
| 2026-05-08 08:57 | 34.69072 | -91.49652 | 10535 ft | 268 kts | 285° |
| 2026-05-08 08:58 | 34.69595 | -91.51798 | 10398 ft | 261 kts | 285° |
| 2026-05-08 08:58 | 34.70104 | -91.53889 | 10237 ft | 255 kts | 285° |
| 2026-05-08 08:58 | 34.70603 | -91.55944 | 10017 ft | 252 kts | 285° |
| 2026-05-08 08:58 | 34.71098 | -91.57981 | 9692 ft | 252 kts | 285° |
| 2026-05-08 08:59 | 34.71594 | -91.60025 | 9335 ft | 253 kts | 285° |
| 2026-05-08 08:59 | 34.72085 | -91.62054 | 9012 ft | 253 kts | 285° |
| 2026-05-08 08:59 | 34.72584 | -91.64112 | 8662 ft | 255 kts | 285° |
| 2026-05-08 08:59 | 34.73092 | -91.66212 | 8227 ft | 260 kts | 286° |
| 2026-05-08 09:00 | 34.73601 | -91.68313 | 7970 ft | 258 kts | 286° |
| 2026-05-08 09:00 | 34.74105 | -91.70399 | 7692 ft | 257 kts | 286° |
| 2026-05-08 09:00 | 34.74608 | -91.72480 | 7393 ft | 257 kts | 286° |
| 2026-05-08 09:00 | 34.75110 | -91.74559 | 7100 ft | 256 kts | 286° |
| 2026-05-08 09:01 | 34.75612 | -91.76640 | 6813 ft | 256 kts | 286° |
| 2026-05-08 09:01 | 34.76114 | -91.78724 | 6455 ft | 259 kts | 286° |
| 2026-05-08 09:01 | 34.76622 | -91.80833 | 6121 ft | 260 kts | 287° |
| 2026-05-08 09:01 | 34.77130 | -91.82943 | 5826 ft | 259 kts | 287° |
| 2026-05-08 09:02 | 34.77635 | -91.85045 | 5533 ft | 259 kts | 287° |
| 2026-05-08 09:02 | 34.78134 | -91.87119 | 5255 ft | 258 kts | 287° |
| 2026-05-08 09:02 | 34.78642 | -91.89233 | 4970 ft | 257 kts | 287° |
| 2026-05-08 09:02 | 34.79136 | -91.91293 | 4691 ft | 256 kts | 287° |
| 2026-05-08 09:03 | 34.79634 | -91.93370 | 4414 ft | 255 kts | 287° |
| 2026-05-08 09:03 | 34.80131 | -91.95439 | 4140 ft | 254 kts | 288° |
| 2026-05-08 09:03 | 34.80994 | -91.97264 | 3993 ft | 246 kts | 315° |
| 2026-05-08 09:03 | 34.82216 | -91.98655 | 3934 ft | 237 kts | 316° |
| 2026-05-08 09:04 | 34.83405 | -92.00012 | 3835 ft | 229 kts | 316° |
| 2026-05-08 09:04 | 34.84547 | -92.01325 | 3740 ft | 221 kts | 313° |
| 2026-05-08 09:04 | 34.85303 | -92.02888 | 3574 ft | 215 kts | 279° |
| 2026-05-08 09:04 | 34.85190 | -92.04642 | 3434 ft | 205 kts | 250° |
| 2026-05-08 09:05 | 34.84495 | -92.06071 | 3212 ft | 194 kts | 228° |
| 2026-05-08 09:05 | 34.83595 | -92.07223 | 3011 ft | 183 kts | 226° |
| 2026-05-08 09:05 | 34.82739 | -92.08317 | 2801 ft | 173 kts | 226° |
| 2026-05-08 09:05 | 34.81924 | -92.09364 | 2662 ft | 167 kts | 226° |
| 2026-05-08 09:06 | 34.81137 | -92.10376 | 2437 ft | 159 kts | 226° |
| 2026-05-08 09:06 | 34.80407 | -92.11310 | 2232 ft | 145 kts | 226° |
| 2026-05-08 09:06 | 34.79729 | -92.12176 | 2069 ft | 138 kts | 225° |
| 2026-05-08 09:06 | 34.79064 | -92.13024 | 1892 ft | 139 kts | 225° |
| 2026-05-08 09:07 | 34.78390 | -92.13878 | 1690 ft | 141 kts | 224° |
| 2026-05-08 09:07 | 34.77700 | -92.14732 | 1471 ft | 141 kts | 225° |
| 2026-05-08 09:07 | 34.77016 | -92.15587 | 1271 ft | 140 kts | 225° |
| 2026-05-08 09:07 | 34.76343 | -92.16467 | 1084 ft | 145 kts | 227° |
| 2026-05-08 09:08 | 34.75644 | -92.17365 | 894 ft | 148 kts | 226° |
| 2026-05-08 09:08 | 34.74938 | -92.18274 | 672 ft | 150 kts | 227° |
| 2026-05-08 09:08 | 34.74233 | -92.19193 | 457 ft | 148 kts | 227° |
| 2026-05-08 09:08 | 34.73536 | -92.20087 | 299 ft | 144 kts | 226° |
| 2026-05-08 09:09 | 34.72909 | -92.20887 | 265 ft | 107 kts | 226° |
| 2026-05-08 09:09 | 34.72540 | -92.21357 | 266 ft | 47 kts | 227° |
| 2026-05-08 09:09 | 34.72430 | -92.21575 | 265 ft | 22 kts | 249° |
| 2026-05-08 09:09 | 34.72415 | -92.21638 | 265 ft | 0 kts | 259° |
| 2026-05-08 09:10 | 34.72414 | -92.21642 | 265 ft | 2 kts | 263° |
| 2026-05-08 09:10 | 34.72438 | -92.21696 | 266 ft | 12 kts | 333° |
| 2026-05-08 09:11 | 34.72514 | -92.21645 | 266 ft | 14 kts | 45° |
| 2026-05-08 09:11 | 34.72589 | -92.21550 | 266 ft | 17 kts | 46° |
| 2026-05-08 09:11 | 34.72675 | -92.21441 | 266 ft | 19 kts | 46° |
| 2026-05-08 09:11 | 34.72765 | -92.21326 | 266 ft | 18 kts | 46° |
| 2026-05-08 09:12 | 34.72839 | -92.21316 | 266 ft | 13 kts | 307° |
| 2026-05-08 09:12 | 34.72881 | -92.21423 | 266 ft | 15 kts | 294° |
| 2026-05-08 09:12 | 34.72928 | -92.21552 | 266 ft | 18 kts | 294° |
| 2026-05-08 09:12 | 34.72980 | -92.21691 | 266 ft | 18 kts | 294° |
| 2026-05-08 09:13 | 34.73018 | -92.21796 | 266 ft | 10 kts | 290° |
| 2026-05-08 09:13 | 34.73030 | -92.21860 | 266 ft | 6 kts | 265° |
| 2026-05-08 09:13 | 34.73029 | -92.21878 | 266 ft | 3 kts | 273° |
| 2026-05-08 09:13 | 34.73036 | -92.21899 | 266 ft | 1 kts | 301° |
| 2026-05-08 09:14 | 34.73041 | -92.21908 | 266 ft | 1 kts | 306° |
| 2026-05-08 09:14 | 34.73043 | -92.21911 | 266 ft | 0 kts | 307° |